Terminal Aerodrome Forecast
Issued by NWS Birmingham, AL

Home | Current Version | Previous Version | Text Only | Print | Product List | Glossary On
Versions: 1 2 3 4 5 6 7 8 9 10 11 12 13 14 15 16 17 18 19 20 21 22 23 24 25 26 27 28
000
FTUS44 KBMX 180928 AAA
TAFBHM
TAF AMD
KBHM 180928Z 1809/1906 27007KT P6SM SCT007 BKN015 BKN020
     FM181500 31010KT P6SM SCT040
     FM190200 29003KT P6SM FEW250=

USA.gov is the U.S. government's official web portal to all federal, state and local government web resources and services.